createdAt,value
2022-08-09T00:04:05.706Z,94940.00
2022-08-09T00:07:54.294Z,94940.00
2022-08-09T00:12:03.951Z,94933.00
2022-08-09T00:16:07.446Z,94935.00
2022-08-09T00:20:15.541Z,94942.00
2022-08-09T00:24:17.974Z,94939.00
2022-08-09T00:28:27.170Z,94940.00
2022-08-09T00:32:29.587Z,94941.00
2022-08-09T00:36:32.132Z,94942.00
2022-08-09T00:40:34.754Z,94940.00
2022-08-09T00:44:41.133Z,94939.00
2022-08-09T00:48:47.513Z,94930.00
2022-08-09T00:52:56.319Z,94929.00
2022-08-09T00:56:59.270Z,94933.00
2022-08-09T01:01:16.222Z,94931.00
2022-08-09T01:05:51.978Z,94932.00
2022-08-09T01:10:05.391Z,94928.00
2022-08-09T01:14:18.365Z,94923.00
2022-08-09T01:18:29.860Z,94922.00
2022-08-09T01:24:03.258Z,94923.00
2022-08-09T01:27:40.165Z,94917.00
2022-08-09T01:32:30.738Z,94929.00
2022-08-09T01:36:12.066Z,94927.00
2022-08-09T01:40:23.287Z,94920.00
2022-08-09T01:44:32.342Z,94925.00
2022-08-09T01:48:36.148Z,94921.00
2022-08-09T01:52:43.394Z,94918.00
2022-08-09T01:56:51.598Z,94930.00
2022-08-09T02:00:56.417Z,94934.00
2022-08-09T02:05:05.244Z,94921.00
2022-08-09T02:09:10.547Z,94927.00
2022-08-09T02:13:16.609Z,94927.00
2022-08-09T02:17:59.947Z,94926.00
2022-08-09T02:21:49.477Z,94915.00
2022-08-09T02:26:00.458Z,94926.00
2022-08-09T02:30:04.202Z,94913.00
2022-08-09T02:34:40.802Z,94917.00
2022-08-09T02:38:54.927Z,94916.00
2022-08-09T02:43:00.692Z,94911.00
2022-08-09T02:47:09.755Z,94913.00
2022-08-09T02:51:15.601Z,94922.00
2022-08-09T02:55:20.987Z,94920.00
2022-08-09T02:59:36.435Z,94911.00
2022-08-09T03:04:13.104Z,94908.00
2022-08-09T03:08:05.440Z,94913.00
2022-08-09T03:12:11.046Z,94918.00
2022-08-09T03:16:20.304Z,94905.00
2022-08-09T03:20:24.497Z,94914.00
2022-08-09T03:24:42.359Z,94911.00
2022-08-09T03:28:55.624Z,94903.00
2022-08-09T03:33:01.081Z,94904.00
2022-08-09T03:37:29.236Z,94898.00
2022-08-09T03:41:45.755Z,94907.00
2022-08-09T03:46:05.365Z,94905.00
2022-08-09T03:50:27.627Z,94915.00
2022-08-09T03:54:38.607Z,94906.00
2022-08-09T03:58:41.154Z,94900.00
2022-08-09T04:02:45.451Z,94884.00
2022-08-09T04:06:55.367Z,94881.00
2022-08-09T04:11:01.241Z,94871.00
2022-08-09T04:15:11.465Z,94888.00
2022-08-09T04:19:30.252Z,94880.00
2022-08-09T04:23:41.762Z,94891.00
2022-08-09T04:27:59.824Z,94890.00
2022-08-09T04:32:05.399Z,94891.00
2022-08-09T04:36:08.131Z,94889.00
2022-08-09T04:40:11.896Z,94892.00
2022-08-09T04:44:22.711Z,94902.00
2022-08-09T04:48:33.477Z,94892.00
2022-08-09T04:52:37.008Z,94894.00
2022-08-09T04:56:40.170Z,94901.00
2022-08-09T05:00:43.114Z,94907.00
2022-08-09T05:04:45.386Z,94915.00
2022-08-09T05:08:49.676Z,94915.00
2022-08-09T05:12:51.806Z,94928.00
2022-08-09T05:16:59.163Z,94916.00
2022-08-09T05:21:02.207Z,94924.00
2022-08-09T05:25:12.431Z,94922.00
2022-08-09T05:29:21.063Z,94923.00
2022-08-09T05:33:32.754Z,94929.00
2022-08-09T05:37:38.151Z,94935.00
2022-08-09T05:41:49.956Z,94929.00
2022-08-09T05:45:56.696Z,94936.00
2022-08-09T05:50:24.324Z,94932.00
2022-08-09T05:54:22.100Z,94940.00
2022-08-09T05:58:25.887Z,94966.00
2022-08-09T06:02:29.405Z,94983.00
2022-08-09T06:06:34.861Z,94995.00
2022-08-09T06:10:40.423Z,94987.00
2022-08-09T06:14:42.579Z,94990.00
2022-08-09T06:18:44.913Z,94998.00
2022-08-09T06:22:47.682Z,94997.00
2022-08-09T06:26:51.715Z,95005.00
2022-08-09T06:30:54.409Z,94997.00
2022-08-09T06:34:57.688Z,95009.00
2022-08-09T06:39:02.463Z,95012.00
2022-08-09T06:43:13.861Z,95018.00
2022-08-09T06:47:16.722Z,95014.00
2022-08-09T06:51:20.644Z,95018.00
2022-08-09T06:55:26.719Z,95014.00
2022-08-09T07:00:53.776Z,95010.00
2022-08-09T07:03:57.797Z,95018.00
2022-08-09T07:08:05.722Z,95011.00
2022-08-09T07:12:08.024Z,95015.00
2022-08-09T07:16:41.781Z,95019.00
2022-08-09T07:20:43.436Z,95021.00
2022-08-09T07:24:49.367Z,95021.00
2022-08-09T07:29:09.211Z,95025.00
2022-08-09T07:33:16.429Z,95020.00
2022-08-09T07:37:19.044Z,95018.00
2022-08-09T07:41:24.586Z,95014.00
2022-08-09T07:45:40.001Z,95020.00
2022-08-09T07:49:52.222Z,95023.00
2022-08-09T07:54:08.511Z,95020.00
2022-08-09T07:58:13.346Z,95024.00
2022-08-09T08:02:19.191Z,95023.00
2022-08-09T08:06:22.221Z,95018.00
2022-08-09T08:10:34.773Z,95016.00
2022-08-09T08:14:37.904Z,95012.00
2022-08-09T08:18:39.953Z,95000.00
2022-08-09T08:22:48.390Z,95019.00
2022-08-09T08:26:55.874Z,95013.00
2022-08-09T08:30:58.675Z,95012.00
2022-08-09T08:35:01.166Z,95013.00
2022-08-09T08:39:04.675Z,95006.00
2022-08-09T08:43:08.930Z,95013.00
2022-08-09T08:47:16.007Z,95017.00
2022-08-09T08:51:18.510Z,95016.00
2022-08-09T08:55:23.128Z,95017.00
2022-08-09T08:59:28.098Z,95016.00
2022-08-09T09:03:50.602Z,95017.00
2022-08-09T09:07:54.344Z,95021.00
2022-08-09T09:11:59.539Z,95014.00
2022-08-09T09:16:03.147Z,95018.00
2022-08-09T09:20:10.376Z,95019.00
2022-08-09T09:24:21.469Z,95023.00
2022-08-09T09:29:02.451Z,95026.00
2022-08-09T09:33:16.920Z,95013.00
2022-08-09T09:37:31.823Z,95020.00
2022-08-09T09:41:49.502Z,95022.00
2022-08-09T09:46:38.926Z,95012.00
2022-08-09T09:50:22.897Z,95017.00
2022-08-09T09:54:26.108Z,95003.00
2022-08-09T09:58:46.946Z,95006.00
2022-08-09T10:02:51.560Z,95015.00
2022-08-09T10:06:54.394Z,95020.00
2022-08-09T10:10:56.959Z,95005.00
2022-08-09T10:15:10.780Z,95006.00
2022-08-09T10:19:20.516Z,94993.00
2022-08-09T10:23:28.203Z,94998.00
2022-08-09T10:27:34.629Z,95003.00
2022-08-09T10:32:27.867Z,94991.00
2022-08-09T10:36:09.367Z,95001.00
2022-08-09T10:40:33.363Z,94999.00
2022-08-09T10:44:39.898Z,94998.00
2022-08-09T10:49:20.735Z,94994.00
2022-08-09T10:53:46.608Z,94983.00
2022-08-09T10:57:52.050Z,94995.00
2022-08-09T11:03:14.733Z,94988.00
2022-08-09T11:06:24.944Z,94988.00
2022-08-09T11:10:54.729Z,94990.00
2022-08-09T11:15:23.766Z,94984.00
2022-08-09T11:20:11.650Z,94985.00
2022-08-09T11:24:16.942Z,94980.00
2022-08-09T11:28:34.669Z,94982.00
2022-08-09T11:33:09.017Z,94973.00
2022-08-09T11:37:31.289Z,94980.00
2022-08-09T11:41:43.483Z,94995.00
2022-08-09T11:46:04.225Z,94992.00
2022-08-09T11:50:53.933Z,94989.00
2022-08-09T11:54:34.762Z,94978.00
2022-08-09T11:58:48.208Z,94974.00
2022-08-09T12:02:53.867Z,94985.00
2022-08-09T12:06:59.485Z,94990.00
2022-08-09T12:11:02.265Z,94978.00
2022-08-09T12:15:22.279Z,94977.00
2022-08-09T12:19:43.887Z,94976.00
2022-08-09T12:24:06.521Z,94986.00
2022-08-09T12:28:58.371Z,94985.00
2022-08-09T12:32:40.660Z,94983.00
2022-08-09T12:36:58.912Z,94974.00
2022-08-09T12:41:12.451Z,94968.00
2022-08-09T12:45:33.415Z,94959.00
2022-08-09T12:49:38.522Z,94967.00
2022-08-09T12:53:44.808Z,94971.00
2022-08-09T12:57:56.132Z,94973.00
2022-08-09T13:02:09.266Z,94969.00
2022-08-09T13:06:35.576Z,94955.00
2022-08-09T13:10:52.797Z,94953.00
2022-08-09T13:15:07.153Z,94952.00
2022-08-09T13:19:10.864Z,94949.00
2022-08-09T13:24:16.696Z,94956.00
2022-08-09T13:27:54.926Z,94949.00
2022-08-09T13:32:17.772Z,94964.00
2022-08-09T13:36:40.537Z,94954.00
2022-08-09T13:41:52.252Z,94962.00
2022-08-09T13:45:12.437Z,94960.00
2022-08-09T13:49:18.289Z,94956.00
2022-08-09T13:53:20.878Z,94946.00
2022-08-09T13:57:47.242Z,94961.00
2022-08-09T14:02:02.262Z,94953.00
2022-08-09T14:06:14.817Z,94956.00
2022-08-09T14:10:37.416Z,94959.00
2022-08-09T14:14:44.134Z,94950.00
2022-08-09T14:18:58.087Z,94955.00
2022-08-09T14:23:00.975Z,94958.00
2022-08-09T14:27:03.432Z,94967.00
2022-08-09T14:31:23.436Z,94969.00
2022-08-09T14:35:26.305Z,94970.00
2022-08-09T14:39:48.897Z,94964.00
2022-08-09T14:43:53.704Z,94967.00
2022-08-09T14:47:58.284Z,94970.00
2022-08-09T14:52:02.002Z,94967.00
2022-08-09T14:56:08.271Z,94971.00
2022-08-09T15:00:15.661Z,94972.00
2022-08-09T15:04:17.885Z,94969.00
2022-08-09T15:08:19.990Z,94956.00
2022-08-09T15:12:26.139Z,94962.00
2022-08-09T15:16:31.246Z,94953.00
2022-08-09T15:21:55.041Z,94957.00
2022-08-09T15:24:56.436Z,94959.00
2022-08-09T15:29:04.350Z,94956.00
2022-08-09T15:33:07.415Z,94955.00
2022-08-09T15:37:37.277Z,94954.00
2022-08-09T15:41:41.957Z,94954.00
2022-08-09T15:46:07.889Z,94961.00
2022-08-09T15:50:10.566Z,94950.00
2022-08-09T15:54:27.491Z,94949.00
2022-08-09T15:58:37.774Z,94957.00
2022-08-09T16:02:48.211Z,94954.00
2022-08-09T16:06:56.945Z,94955.00
2022-08-09T16:11:03.831Z,94956.00
2022-08-09T16:16:10.620Z,94958.00
2022-08-09T16:19:30.388Z,94946.00
2022-08-09T16:23:39.297Z,94946.00
2022-08-09T16:27:41.516Z,94946.00
2022-08-09T16:32:19.086Z,94945.00
2022-08-09T16:36:13.109Z,94946.00
2022-08-09T16:40:29.531Z,94942.00
2022-08-09T16:44:41.919Z,94947.00
2022-08-09T16:48:54.791Z,94953.00
2022-08-09T16:53:05.625Z,94948.00
2022-08-09T16:57:07.869Z,94948.00
2022-08-09T17:01:13.734Z,94952.00
2022-08-09T17:05:19.655Z,94952.00
2022-08-09T17:09:45.404Z,94949.00
2022-08-09T17:13:45.033Z,94949.00
2022-08-09T17:17:50.439Z,94952.00
2022-08-09T17:21:56.000Z,94948.00
2022-08-09T17:26:01.799Z,94946.00
2022-08-09T17:30:14.198Z,94950.00
2022-08-09T17:34:20.475Z,94960.00
2022-08-09T17:38:43.424Z,94956.00
2022-08-09T17:43:32.172Z,94963.00
2022-08-09T17:47:28.931Z,94970.00
2022-08-09T17:51:32.289Z,94975.00
2022-08-09T17:55:48.554Z,94970.00
2022-08-09T18:00:05.463Z,94977.00
2022-08-09T18:04:14.273Z,94982.00
2022-08-09T18:08:16.414Z,94985.00
2022-08-09T18:12:20.066Z,94992.00
2022-08-09T18:16:28.820Z,94983.00
2022-08-09T18:20:54.134Z,94993.00
2022-08-09T18:24:54.165Z,94989.00
2022-08-09T18:30:41.575Z,94992.00
2022-08-09T18:33:21.565Z,94988.00
2022-08-09T18:37:47.856Z,95001.00
2022-08-09T18:41:52.946Z,95010.00
2022-08-09T18:46:46.219Z,95014.00
2022-08-09T18:50:18.310Z,95008.00
2022-08-09T18:54:28.400Z,95021.00
2022-08-09T18:58:33.095Z,95015.00
2022-08-09T19:02:35.578Z,95024.00
2022-08-09T19:06:38.947Z,95032.00
2022-08-09T19:10:50.744Z,95047.00
2022-08-09T19:14:53.030Z,95051.00
2022-08-09T19:18:55.441Z,95057.00
2022-08-09T19:23:00.509Z,95054.00
2022-08-09T19:27:05.180Z,95060.00
2022-08-09T19:31:07.898Z,95065.00
2022-08-09T19:35:10.324Z,95062.00
2022-08-09T19:39:12.774Z,95063.00
2022-08-09T19:43:22.955Z,95070.00
2022-08-09T19:47:38.456Z,95063.00
2022-08-09T19:51:41.152Z,95065.00
2022-08-09T19:56:02.535Z,95068.00
2022-08-09T20:00:08.812Z,95074.00
2022-08-09T20:04:27.973Z,95076.00
2022-08-09T20:08:35.285Z,95081.00
2022-08-09T20:12:45.898Z,95081.00
2022-08-09T20:16:54.345Z,95081.00
2022-08-09T20:20:57.565Z,95080.00
2022-08-09T20:24:59.548Z,95080.00
2022-08-09T20:29:18.658Z,95076.00
2022-08-09T20:33:21.378Z,95084.00
2022-08-09T20:37:25.711Z,95076.00
2022-08-09T20:41:49.032Z,95082.00
2022-08-09T20:46:01.009Z,95083.00
2022-08-09T20:50:47.602Z,95081.00
2022-08-09T20:54:52.867Z,95084.00
2022-08-09T20:58:58.857Z,95091.00
2022-08-09T21:03:02.265Z,95079.00
2022-08-09T21:07:12.225Z,95080.00
2022-08-09T21:15:38.341Z,95082.00
2022-08-09T21:20:17.041Z,95079.00
2022-08-09T21:24:28.312Z,95076.00
2022-08-09T21:28:36.256Z,95081.00
2022-08-09T21:32:39.274Z,95076.00
2022-08-09T21:36:55.465Z,95073.00
2022-08-09T21:40:59.670Z,95076.00
2022-08-09T21:45:01.897Z,95077.00
2022-08-09T21:49:04.386Z,95076.00
2022-08-09T21:53:23.911Z,95073.00
2022-08-09T21:57:58.984Z,95078.00
2022-08-09T22:02:00.946Z,95070.00
2022-08-09T22:06:03.736Z,95082.00
2022-08-09T22:10:08.252Z,95071.00
2022-08-09T22:14:13.391Z,95064.00
2022-08-09T22:18:17.075Z,95071.00
2022-08-09T22:22:20.578Z,95065.00
2022-08-09T22:26:34.244Z,95064.00
2022-08-09T22:30:38.186Z,95060.00
2022-08-09T22:34:44.471Z,95076.00
2022-08-09T22:39:01.370Z,95069.00
2022-08-09T22:43:16.074Z,95069.00
2022-08-09T22:48:13.369Z,95064.00
2022-08-09T22:51:57.109Z,95068.00
2022-08-09T22:56:29.258Z,95062.00
2022-08-09T23:00:23.848Z,95062.00
2022-08-09T23:04:32.579Z,95061.00
2022-08-09T23:08:47.309Z,95057.00
2022-08-09T23:12:49.620Z,95054.00
2022-08-09T23:16:51.715Z,95054.00
2022-08-09T23:20:54.008Z,95059.00
2022-08-09T23:24:56.250Z,95058.00
2022-08-09T23:28:58.478Z,95058.00
2022-08-09T23:33:00.997Z,95051.00
2022-08-09T23:37:03.789Z,95053.00
2022-08-09T23:41:06.488Z,95052.00
2022-08-09T23:45:11.180Z,95049.00
2022-08-09T23:49:33.771Z,95054.00
2022-08-09T23:53:37.871Z,95052.00
2022-08-09T23:57:59.042Z,95055.00
